Time;durP1;ratioP1;P1;durP2;ratioP2;P2;SDS_P1;SDS_P2;PMS_P1;PMS_P2;Temp;Humidity;BMP_temperature;BMP_pressure;BME280_temperature;BME280_humidity;BME280_pressure;Samples;Min_cycle;Max_cycle;Signal;HPM_P1;HPM_P2
2023/05/12 00:00:36;;;;;;;3.25;1.90;;;15.50;99.90;;;;;;10441631;28;20580;-66
2023/05/12 00:05:37;;;;;;;3.60;1.90;;;15.40;99.90;;;;;;10435094;28;20025;-66
2023/05/12 00:10:37;;;;;;;2.53;1.60;;;15.40;99.90;;;;;;10447885;28;20024;-66
2023/05/12 00:15:38;;;;;;;3.80;2.15;;;15.40;99.90;;;;;;10442101;28;20028;-66
2023/05/12 00:20:38;;;;;;;3.78;1.92;;;15.40;99.90;;;;;;10445593;28;20450;-66
2023/05/12 00:25:39;;;;;;;2.17;1.60;;;15.40;99.90;;;;;;10431264;28;20029;-69
2023/05/12 00:30:40;;;;;;;3.03;1.70;;;15.40;99.90;;;;;;10439343;28;20797;-66
2023/05/12 00:35:40;;;;;;;3.42;2.15;;;15.40;99.90;;;;;;10433505;28;20108;-67
2023/05/12 00:40:41;;;;;;;2.30;1.70;;;15.40;99.90;;;;;;10438309;28;20063;-66
2023/05/12 00:45:43;;;;;;;2.65;1.73;;;15.40;99.90;;;;;;10436326;28;20155;-66
2023/05/12 00:50:43;;;;;;;2.17;1.55;;;15.30;99.90;;;;;;10444618;28;20025;-66
2023/05/12 00:55:44;;;;;;;1.67;1.35;;;15.30;99.90;;;;;;10449693;28;20034;-66
2023/05/12 01:00:45;;;;;;;2.53;1.50;;;15.30;99.90;;;;;;10445247;28;20025;-66
2023/05/12 01:05:55;;;;;;;2.47;1.50;;;15.40;99.90;;;;;;10443211;28;20021;-66
2023/05/12 01:10:55;;;;;;;2.65;1.75;;;15.30;99.90;;;;;;10445188;28;20021;-66
2023/05/12 01:15:59;;;;;;;3.17;1.88;;;15.30;99.90;;;;;;10443445;28;20029;-66
2023/05/12 01:21:01;;;;;;;2.45;1.58;;;15.30;99.90;;;;;;10444477;28;20025;-66
2023/05/12 01:26:08;;;;;;;3.53;1.60;;;15.20;99.90;;;;;;10445751;28;20028;-66
2023/05/12 01:31:09;;;;;;;2.92;1.70;;;15.20;99.90;;;;;;10437407;28;20020;-66
2023/05/12 01:36:10;;;;;;;2.70;1.67;;;15.20;99.90;;;;;;10448779;28;20015;-66
2023/05/12 01:41:10;;;;;;;2.20;1.40;;;15.20;99.90;;;;;;10434845;28;20393;-66
2023/05/12 01:46:11;;;;;;;1.98;1.08;;;15.20;99.90;;;;;;10448652;28;20785;-66
2023/05/12 01:51:11;;;;;;;2.58;1.65;;;15.20;99.90;;;;;;10440309;28;20024;-66
2023/05/12 01:56:12;;;;;;;2.38;1.60;;;15.30;99.90;;;;;;10436353;28;20248;-66
2023/05/12 02:01:13;;;;;;;2.30;1.50;;;15.20;99.90;;;;;;10433262;28;20033;-66
2023/05/12 02:06:14;;;;;;;2.13;1.40;;;15.20;99.90;;;;;;10445907;28;20090;-66
2023/05/12 02:11:15;;;;;;;2.17;1.58;;;15.20;99.90;;;;;;10435277;28;20082;-66
2023/05/12 02:16:15;;;;;;;3.53;1.60;;;15.20;99.90;;;;;;10437140;28;20036;-65
2023/05/12 02:21:16;;;;;;;2.88;1.77;;;15.10;99.90;;;;;;10441806;28;20322;-66
2023/05/12 02:26:18;;;;;;;3.25;1.88;;;15.10;99.90;;;;;;10437584;28;20039;-66
2023/05/12 02:31:18;;;;;;;3.03;1.73;;;15.10;99.90;;;;;;10441422;28;20056;-66
2023/05/12 02:36:19;;;;;;;3.25;1.90;;;15.20;99.90;;;;;;10434339;28;20104;-66
2023/05/12 02:41:19;;;;;;;3.28;2.13;;;15.10;99.90;;;;;;10439742;28;20328;-66
2023/05/12 02:46:20;;;;;;;3.00;2.13;;;15.10;99.90;;;;;;10432396;28;20100;-66
2023/05/12 02:51:21;;;;;;;3.50;2.25;;;15.10;99.90;;;;;;10433088;28;20033;-66
2023/05/12 02:56:21;;;;;;;4.68;2.42;;;15.10;99.90;;;;;;10441041;28;20021;-66
2023/05/12 03:01:22;;;;;;;4.57;2.20;;;15.10;99.90;;;;;;10435713;28;20108;-66
2023/05/12 03:06:22;;;;;;;3.53;2.35;;;15.10;99.90;;;;;;10432854;28;20056;-68
2023/05/12 03:11:25;;;;;;;5.35;2.50;;;15.10;99.90;;;;;;10441405;28;20426;-66
2023/05/12 03:16:25;;;;;;;6.28;3.15;;;15.10;99.90;;;;;;10433213;28;20076;-66
2023/05/12 03:21:27;;;;;;;5.97;3.15;;;15.10;99.90;;;;;;10441866;28;20021;-66
2023/05/12 03:26:28;;;;;;;6.22;3.03;;;15.10;99.90;;;;;;10433919;28;20017;-66
2023/05/12 03:31:28;;;;;;;6.32;2.70;;;15.10;99.90;;;;;;10437971;28;20033;-66
2023/05/12 03:36:29;;;;;;;6.78;3.15;;;15.10;99.90;;;;;;10434122;28;20040;-66
2023/05/12 03:41:29;;;;;;;7.60;3.17;;;15.10;99.90;;;;;;10435317;28;20086;-66
2023/05/12 03:46:30;;;;;;;5.60;3.30;;;15.00;99.90;;;;;;10431751;28;20033;-66
2023/05/12 03:51:31;;;;;;;7.18;3.35;;;15.00;99.90;;;;;;10447844;28;20501;-66
2023/05/12 03:56:32;;;;;;;5.88;3.40;;;15.00;99.90;;;;;;10435398;28;20017;-66
2023/05/12 04:01:33;;;;;;;6.57;4.00;;;15.30;99.90;;;;;;10443604;28;20252;-66
2023/05/12 04:06:35;;;;;;;6.88;3.67;;;15.00;99.90;;;;;;10443858;28;20052;-65
2023/05/12 04:11:36;;;;;;;5.93;3.47;;;15.00;99.90;;;;;;10440260;28;20033;-66
2023/05/12 04:16:36;;;;;;;7.30;3.75;;;15.00;99.90;;;;;;10439328;28;20404;-66
2023/05/12 04:21:37;;;;;;;6.15;3.72;;;15.00;99.90;;;;;;10431184;28;20110;-66
2023/05/12 04:26:37;;;;;;;7.05;4.00;;;15.00;99.90;;;;;;10435535;28;20477;-66
2023/05/12 04:31:38;;;;;;;7.18;3.55;;;15.00;99.90;;;;;;10441553;28;20125;-66
2023/05/12 04:36:38;;;;;;;7.20;4.18;;;15.00;99.90;;;;;;10438546;28;20116;-65
2023/05/12 04:41:39;;;;;;;7.53;4.40;;;15.00;99.90;;;;;;10453933;28;20032;-66
2023/05/12 04:46:40;;;;;;;8.30;3.80;;;15.00;99.90;;;;;;10449458;28;20318;-66
2023/05/12 04:51:43;;;;;;;6.93;3.72;;;15.00;99.90;;;;;;10441950;28;20029;-69
2023/05/12 04:56:43;;;;;;;10.30;5.10;;;15.10;99.90;;;;;;10449244;28;20031;-66
2023/05/12 05:01:44;;;;;;;9.30;4.72;;;14.90;99.90;;;;;;10446503;28;20400;-66
2023/05/12 05:06:45;;;;;;;10.38;5.07;;;15.00;99.90;;;;;;10443567;28;20383;-66
2023/05/12 05:11:46;;;;;;;9.07;4.78;;;15.00;99.90;;;;;;10441316;28;20112;-66
2023/05/12 05:16:47;;;;;;;9.68;5.38;;;15.00;99.90;;;;;;10458968;28;20021;-66
2023/05/12 05:21:47;;;;;;;10.57;6.10;;;15.00;99.90;;;;;;10447726;28;20369;-66
2023/05/12 05:26:48;;;;;;;8.82;4.60;;;15.10;99.90;;;;;;10437193;28;20025;-66
2023/05/12 05:31:49;;;;;;;10.32;5.05;;;15.00;99.90;;;;;;10445501;28;20036;-66
2023/05/12 05:36:50;;;;;;;11.20;5.65;;;15.10;99.90;;;;;;10439500;28;20013;-66
2023/05/12 05:41:50;;;;;;;8.48;4.68;;;15.10;99.90;;;;;;10444352;28;20588;-66
2023/05/12 05:46:51;;;;;;;9.30;4.95;;;15.10;99.90;;;;;;10437448;28;20029;-66
2023/05/12 05:51:52;;;;;;;8.98;4.70;;;15.10;99.90;;;;;;10446019;28;20116;-66
2023/05/12 05:56:52;;;;;;;8.30;4.90;;;15.10;99.90;;;;;;10448936;28;20526;-66
2023/05/12 06:01:53;;;;;;;9.02;5.15;;;15.10;99.90;;;;;;10425418;28;20048;-66
2023/05/12 06:06:53;;;;;;;10.20;4.95;;;15.20;99.90;;;;;;10434077;28;20013;-66
2023/05/12 06:11:54;;;;;;;9.32;5.00;;;15.20;99.90;;;;;;10436292;28;20555;-66
2023/05/12 06:16:55;;;;;;;7.43;4.05;;;15.10;99.90;;;;;;10435735;28;20048;-66
2023/05/12 06:21:55;;;;;;;9.43;4.55;;;15.10;99.90;;;;;;10446417;28;20028;-66
2023/05/12 06:26:56;;;;;;;10.32;5.03;;;15.10;99.90;;;;;;10440265;28;20366;-66
2023/05/12 06:31:56;;;;;;;12.30;5.82;;;15.20;99.90;;;;;;10438133;28;20021;-66
2023/05/12 06:36:57;;;;;;;7.93;4.50;;;15.20;99.90;;;;;;10441452;28;20051;-66
2023/05/12 06:41:57;;;;;;;10.10;4.95;;;15.20;99.90;;;;;;10435766;28;20059;-66
2023/05/12 06:46:58;;;;;;;8.18;4.50;;;15.20;99.90;;;;;;10434588;28;20024;-66
2023/05/12 06:51:58;;;;;;;8.02;4.20;;;15.20;99.90;;;;;;10438239;28;20116;-66
2023/05/12 06:56:59;;;;;;;9.82;5.25;;;15.20;99.90;;;;;;10433704;28;20021;-65
2023/05/12 07:02:00;;;;;;;8.20;4.63;;;15.20;99.90;;;;;;10441287;28;20123;-66
2023/05/12 07:07:00;;;;;;;8.10;4.57;;;15.20;99.90;;;;;;10446311;28;20035;-66
2023/05/12 07:12:01;;;;;;;9.05;5.22;;;15.30;99.90;;;;;;10449573;28;20561;-66
2023/05/12 07:17:02;;;;;;;8.95;5.03;;;15.30;99.90;;;;;;10449774;28;20091;-66
2023/05/12 07:22:03;;;;;;;8.80;4.63;;;15.30;99.90;;;;;;10436177;28;20021;-66
2023/05/12 07:27:04;;;;;;;9.10;5.28;;;15.30;99.90;;;;;;10432215;28;20025;-66
2023/05/12 07:32:06;;;;;;;8.20;5.00;;;15.40;99.90;;;;;;10445740;28;20021;-66
2023/05/12 07:37:06;;;;;;;8.18;5.05;;;15.40;99.90;;;;;;10439106;28;20017;-66
2023/05/12 07:42:07;;;;;;;8.88;4.90;;;15.40;99.90;;;;;;10441648;28;20033;-66
2023/05/12 07:47:08;;;;;;;8.55;4.93;;;15.40;99.90;;;;;;10439858;28;20028;-66
2023/05/12 07:52:09;;;;;;;7.55;4.63;;;15.50;99.90;;;;;;10442736;28;20032;-66
2023/05/12 07:57:09;;;;;;;9.10;5.32;;;15.50;99.90;;;;;;10446897;28;20084;-67
2023/05/12 08:02:10;;;;;;;10.02;5.30;;;15.60;99.90;;;;;;10442104;28;20045;-66
2023/05/12 08:07:11;;;;;;;8.57;5.13;;;15.60;99.90;;;;;;10442326;28;20031;-66
2023/05/12 08:12:11;;;;;;;8.88;5.32;;;15.60;99.90;;;;;;10438307;28;20028;-66
2023/05/12 08:17:12;;;;;;;7.90;4.80;;;15.60;99.90;;;;;;10439841;28;20032;-66
2023/05/12 08:22:12;;;;;;;9.40;5.07;;;15.70;99.90;;;;;;10440423;28;20047;-66
2023/05/12 08:27:13;;;;;;;10.43;4.95;;;15.70;99.90;;;;;;10442923;28;20484;-66
2023/05/12 08:32:14;;;;;;;8.77;4.90;;;15.70;99.90;;;;;;10444420;28;20049;-66
2023/05/12 08:37:14;;;;;;;7.75;4.75;;;15.70;99.90;;;;;;10439556;28;20036;-66
2023/05/12 08:42:36;;;;;;;7.97;4.55;;;15.70;99.90;;;;;;10444262;28;20072;-66
2023/05/12 08:47:37;;;;;;;7.13;4.15;;;15.70;99.90;;;;;;10436954;28;20025;-66
2023/05/12 08:52:38;;;;;;;6.88;4.38;;;15.80;99.90;;;;;;10443723;28;20029;-66
2023/05/12 08:57:44;;;;;;;7.00;4.50;;;15.80;99.90;;;;;;10437558;28;20025;-66
2023/05/12 09:02:46;;;;;;;8.82;4.65;;;15.90;99.90;;;;;;10441970;28;20021;-66
2023/05/12 09:07:49;;;;;;;9.18;4.95;;;15.90;99.90;;;;;;10439075;28;20135;-66
2023/05/12 09:12:53;;;;;;;9.57;4.95;;;16.00;99.80;;;;;;10441842;28;20036;-66
2023/05/12 09:17:53;;;;;;;7.50;4.95;;;16.00;99.80;;;;;;10442435;28;20028;-66
2023/05/12 09:22:57;;;;;;;7.43;4.10;;;16.00;99.80;;;;;;10442192;28;20555;-66
2023/05/12 09:27:57;;;;;;;9.38;5.47;;;16.10;99.70;;;;;;10438846;28;20436;-66
2023/05/12 09:33:05;;;;;;;8.20;4.93;;;16.10;99.70;;;;;;10443214;28;20032;-66
2023/05/12 09:38:08;;;;;;;7.15;4.47;;;16.20;99.80;;;;;;10439841;28;20024;-66
2023/05/12 09:43:09;;;;;;;7.90;4.95;;;16.20;99.70;;;;;;10433019;28;20071;-66
2023/05/12 09:48:11;;;;;;;7.20;4.35;;;16.20;99.70;;;;;;10440374;28;20052;-66
2023/05/12 09:53:13;;;;;;;9.60;5.45;;;16.20;99.70;;;;;;10437197;28;20500;-66
2023/05/12 09:58:15;;;;;;;10.00;5.60;;;16.40;99.80;;;;;;10439770;28;20052;-66
2023/05/12 10:03:17;;;;;;;8.88;4.65;;;16.30;99.80;;;;;;10439398;28;20492;-66
2023/05/12 10:08:23;;;;;;;7.63;4.75;;;16.40;99.70;;;;;;10451903;28;20017;-66
2023/05/12 10:13:25;;;;;;;10.05;5.65;;;16.50;99.70;;;;;;10429354;28;20021;-66
2023/05/12 10:18:26;;;;;;;7.65;4.88;;;16.50;99.60;;;;;;10446726;28;20038;-66
2023/05/12 10:23:27;;;;;;;6.82;4.68;;;16.60;99.60;;;;;;10462092;28;20037;-66
2023/05/12 10:28:28;;;;;;;7.13;4.45;;;16.60;99.90;;;;;;10434058;28;20024;-66
2023/05/12 10:33:29;;;;;;;7.88;4.55;;;16.60;99.60;;;;;;10443754;28;20021;-66
2023/05/12 10:38:36;;;;;;;9.95;5.15;;;16.70;99.60;;;;;;10432192;28;20025;-66
2023/05/12 10:43:40;;;;;;;6.80;4.53;;;16.70;99.60;;;;;;10452550;28;20106;-66
2023/05/12 10:48:57;;;;;;;8.10;4.72;;;16.70;99.60;;;;;;10438948;28;20023;-66
2023/05/12 10:54:02;;;;;;;8.52;4.78;;;16.80;99.60;;;;;;10434906;28;20017;-66
2023/05/12 10:59:06;;;;;;;6.45;4.22;;;16.80;99.60;;;;;;10441130;28;20029;-66
2023/05/12 11:04:10;;;;;;;6.85;4.13;;;16.90;99.60;;;;;;10448541;28;20032;-66
2023/05/12 11:09:11;;;;;;;6.85;3.97;;;16.90;99.50;;;;;;10444414;28;20035;-66
2023/05/12 11:14:12;;;;;;;5.72;3.72;;;17.00;99.30;;;;;;10434522;28;20028;-66
2023/05/12 11:19:13;;;;;;;5.15;3.80;;;17.10;99.30;;;;;;10445013;28;20064;-66
2023/05/12 11:24:15;;;;;;;5.55;3.58;;;17.20;99.30;;;;;;10445777;28;20500;-66
2023/05/12 11:29:19;;;;;;;5.03;3.75;;;17.20;99.30;;;;;;10429177;28;20032;-66
2023/05/12 11:34:22;;;;;;;5.40;3.63;;;17.30;99.30;;;;;;10437715;28;20021;-66
2023/05/12 11:39:25;;;;;;;5.00;3.50;;;17.30;99.20;;;;;;10436597;28;20025;-66
2023/05/12 11:44:26;;;;;;;5.60;4.07;;;17.40;99.20;;;;;;10442981;28;20123;-66
2023/05/12 11:49:28;;;;;;;5.13;3.30;;;17.50;99.20;;;;;;10439076;28;20258;-66
2023/05/12 11:54:29;;;;;;;6.95;3.90;;;17.60;99.20;;;;;;10443871;28;20100;-66
2023/05/12 11:59:32;;;;;;;4.25;3.13;;;17.70;99.10;;;;;;10440314;28;20029;-66
2023/05/12 12:04:39;;;;;;;7.82;4.15;;;17.70;99.10;;;;;;10442154;28;20103;-66
2023/05/12 12:09:40;;;;;;;5.05;3.63;;;17.80;99.00;;;;;;10447324;28;20032;-65
2023/05/12 12:14:41;;;;;;;4.70;3.42;;;17.90;99.00;;;;;;10445511;28;20055;-65
2023/05/12 12:19:41;;;;;;;3.97;3.22;;;17.80;98.90;;;;;;10443090;28;20063;-65
2023/05/12 12:24:42;;;;;;;5.43;3.83;;;18.00;99.00;;;;;;10443046;28;20328;-65
2023/05/12 12:29:43;;;;;;;4.75;3.60;;;18.00;99.00;;;;;;10448618;28;20575;-65
2023/05/12 12:34:47;;;;;;;5.85;3.88;;;18.10;99.00;;;;;;10440723;28;20029;-64
2023/05/12 12:39:48;;;;;;;3.78;3.25;;;18.10;98.90;;;;;;10441885;28;20018;-64
2023/05/12 12:44:50;;;;;;;6.93;3.88;;;18.20;98.90;;;;;;10450393;28;20031;-64
2023/05/12 12:49:50;;;;;;;5.72;3.65;;;18.20;98.90;;;;;;10443095;28;20504;-64
2023/05/12 12:54:51;;;;;;;4.50;3.78;;;18.40;98.90;;;;;;10445802;28;20100;-64
2023/05/12 12:59:52;;;;;;;4.10;3.25;;;18.40;98.90;;;;;;10450103;28;20504;-64
2023/05/12 13:04:53;;;;;;;4.75;3.22;;;18.40;98.90;;;;;;10441312;28;20021;-64
2023/05/12 13:09:53;;;;;;;4.88;3.63;;;18.50;99.00;;;;;;10438992;28;20021;-64
2023/05/12 13:14:54;;;;;;;5.03;3.60;;;18.60;98.80;;;;;;10452743;28;20028;-64
2023/05/12 13:19:55;;;;;;;5.85;3.45;;;18.70;98.80;;;;;;10438342;28;20443;-64
2023/05/12 13:24:56;;;;;;;7.30;3.42;;;18.70;98.80;;;;;;10449553;28;20021;-65
2023/05/12 13:29:56;;;;;;;4.85;3.72;;;18.80;98.70;;;;;;10450796;28;20184;-64
2023/05/12 13:34:57;;;;;;;4.78;4.13;;;19.00;98.70;;;;;;10444163;28;20017;-65
2023/05/12 13:39:58;;;;;;;4.75;3.58;;;19.10;98.70;;;;;;10458175;28;20439;-65
2023/05/12 13:44:58;;;;;;;5.32;3.78;;;19.10;98.80;;;;;;10443516;28;20389;-64
2023/05/12 13:49:59;;;;;;;6.80;3.58;;;19.20;98.80;;;;;;10453373;28;20116;-65
2023/05/12 13:55:00;;;;;;;4.88;3.80;;;19.20;98.80;;;;;;10448004;28;20028;-65
2023/05/12 14:00:00;;;;;;;4.68;3.65;;;19.30;98.90;;;;;;10443489;28;20040;-64
2023/05/12 14:05:01;;;;;;;3.83;3.42;;;19.30;98.90;;;;;;10453009;28;20044;-64
2023/05/12 14:10:02;;;;;;;5.72;3.80;;;19.30;98.90;;;;;;10442362;28;20036;-68
2023/05/12 14:15:03;;;;;;;5.07;3.58;;;19.20;99.00;;;;;;10463863;28;20194;-65
2023/05/12 14:20:05;;;;;;;6.07;3.67;;;19.20;99.10;;;;;;10451828;28;20055;-64
2023/05/12 14:25:06;;;;;;;3.90;3.50;;;19.20;99.20;;;;;;10439154;28;20034;-64
2023/05/12 14:30:20;;;;;;;4.65;3.35;;;19.20;99.30;;;;;;10483349;28;20391;-66
2023/05/12 14:35:25;;;;;;;4.88;3.22;;;19.30;99.10;;;;;;10460023;28;20546;-66
2023/05/12 14:40:26;;;;;;;4.65;3.58;;;19.50;98.90;;;;;;10450617;28;20029;-65
2023/05/12 14:45:27;;;;;;;6.53;4.00;;;19.60;98.70;;;;;;10455035;28;20029;-66
2023/05/12 14:50:28;;;;;;;4.88;3.67;;;19.80;98.50;;;;;;10451295;28;20224;-65
2023/05/12 14:55:29;;;;;;;4.35;3.72;;;19.90;98.40;;;;;;10458092;28;20018;-65
2023/05/12 15:00:29;;;;;;;4.50;3.58;;;20.00;98.20;;;;;;10450430;28;20024;-68
2023/05/12 15:05:30;;;;;;;6.50;3.78;;;20.20;96.50;;;;;;10446702;28;20112;-68
2023/05/12 15:10:31;;;;;;;4.00;3.53;;;21.00;94.60;;;;;;10449059;28;20071;-68
2023/05/12 15:15:32;;;;;;;6.65;3.95;;;21.60;92.40;;;;;;10460336;28;20544;-68
2023/05/12 15:20:33;;;;;;;4.57;3.85;;;21.60;90.70;;;;;;10454497;28;20540;-68
2023/05/12 15:25:37;;;;;;;3.80;2.80;;;21.40;90.60;;;;;;10450228;28;20025;-68
2023/05/12 15:30:38;;;;;;;4.38;2.72;;;21.10;89.80;;;;;;10453362;28;20078;-69
2023/05/12 15:35:39;;;;;;;3.00;2.60;;;20.90;89.60;;;;;;10450663;28;20086;-68
2023/05/12 15:40:40;;;;;;;3.13;2.75;;;20.90;89.00;;;;;;10429567;28;20044;-68
2023/05/12 15:45:40;;;;;;;4.30;3.05;;;20.80;88.30;;;;;;10429246;28;20510;-68
2023/05/12 15:50:41;;;;;;;4.38;3.00;;;20.80;88.00;;;;;;10430921;28;21420;-68
2023/05/12 15:55:42;;;;;;;8.32;4.30;;;20.80;87.40;;;;;;10427402;28;20025;-69
2023/05/12 16:00:43;;;;;;;4.88;3.28;;;20.70;86.30;;;;;;10419663;28;20423;-68
2023/05/12 16:05:43;;;;;;;4.40;2.92;;;20.70;86.40;;;;;;10425855;28;20128;-69
2023/05/12 16:10:44;;;;;;;3.28;2.90;;;20.60;86.90;;;;;;10421280;28;20030;-68
2023/05/12 16:15:44;;;;;;;3.75;2.97;;;20.50;86.90;;;;;;10421631;28;20026;-68
2023/05/12 16:20:46;;;;;;;4.90;3.13;;;20.30;86.60;;;;;;10411784;28;20476;-68
2023/05/12 16:25:46;;;;;;;3.72;3.08;;;20.30;87.00;;;;;;10408355;28;20033;-68
2023/05/12 16:30:48;;;;;;;4.10;3.00;;;20.30;87.40;;;;;;10419634;28;20022;-68
2023/05/12 16:35:49;;;;;;;7.85;3.58;;;20.40;86.30;;;;;;10420667;28;20271;-68
2023/05/12 16:40:50;;;;;;;3.47;2.88;;;20.50;86.70;;;;;;10420012;28;20473;-67
2023/05/12 16:46:01;;;;;;;4.40;3.03;;;20.60;86.90;;;;;;10423669;28;20030;-68
2023/05/12 16:51:07;;;;;;;3.70;2.88;;;20.80;84.70;;;;;;10429529;28;20093;-68
2023/05/12 16:56:08;;;;;;;3.50;2.53;;;20.90;84.90;;;;;;10417555;28;20028;-68
2023/05/12 17:01:09;;;;;;;4.90;2.78;;;21.00;84.30;;;;;;10427868;28;20021;-68
2023/05/12 17:06:09;;;;;;;4.60;3.05;;;21.20;82.80;;;;;;10429200;28;20564;-69
2023/05/12 17:11:10;;;;;;;6.60;2.90;;;21.10;81.20;;;;;;10412814;28;20378;-68
2023/05/12 17:16:13;;;;;;;2.85;2.63;;;21.00;81.10;;;;;;10426291;28;20484;-69
2023/05/12 17:21:14;;;;;;;3.35;2.55;;;20.90;80.50;;;;;;10421036;28;20029;-69
2023/05/12 17:26:14;;;;;;;3.65;2.67;;;20.80;80.50;;;;;;10418944;28;20078;-68
2023/05/12 17:31:15;;;;;;;6.70;2.97;;;20.60;80.10;;;;;;10426112;28;20024;-68
2023/05/12 17:36:17;;;;;;;3.78;3.10;;;20.50;80.90;;;;;;10421684;28;20433;-68
2023/05/12 17:41:18;;;;;;;4.65;3.30;;;20.40;80.90;;;;;;10411459;28;20510;-67
2023/05/12 17:46:18;;;;;;;6.20;3.15;;;20.30;81.20;;;;;;10405416;28;20022;-68
2023/05/12 17:51:20;;;;;;;4.03;3.10;;;20.10;81.90;;;;;;10409420;28;20018;-68
2023/05/12 17:56:21;;;;;;;4.90;2.63;;;20.00;83.40;;;;;;10414106;28;20429;-67
2023/05/12 18:01:21;;;;;;;5.00;2.90;;;20.00;84.80;;;;;;10405645;28;20528;-68
2023/05/12 18:06:23;;;;;;;3.75;3.15;;;19.80;86.00;;;;;;10394935;28;20080;-67
2023/05/12 18:11:23;;;;;;;3.92;2.70;;;19.80;87.00;;;;;;10409585;28;20020;-67
2023/05/12 18:16:24;;;;;;;3.88;3.00;;;19.80;88.00;;;;;;10405929;28;20400;-67
2023/05/12 18:21:25;;;;;;;3.67;3.10;;;19.70;89.10;;;;;;10401493;28;20176;-68
2023/05/12 18:26:26;;;;;;;3.45;2.80;;;19.60;90.00;;;;;;10413189;28;20424;-67
2023/05/12 18:31:27;;;;;;;5.10;2.80;;;19.70;90.50;;;;;;10415206;28;20049;-67
2023/05/12 18:36:27;;;;;;;3.05;2.75;;;19.60;90.80;;;;;;10406097;28;20115;-67
2023/05/12 18:41:28;;;;;;;3.60;2.72;;;19.60;91.20;;;;;;10403968;28;20017;-67
2023/05/12 18:46:29;;;;;;;3.70;3.00;;;19.50;91.50;;;;;;10416099;28;20032;-67
2023/05/12 18:51:29;;;;;;;4.32;3.20;;;19.40;91.80;;;;;;10408465;28;20021;-67
2023/05/12 18:56:30;;;;;;;3.83;2.95;;;19.40;92.10;;;;;;10411599;28;20055;-67
2023/05/12 19:01:31;;;;;;;3.88;2.90;;;19.40;92.30;;;;;;10410323;28;20121;-67
2023/05/12 19:06:32;;;;;;;6.38;2.60;;;19.30;92.50;;;;;;10414257;28;20563;-67
2023/05/12 19:11:33;;;;;;;4.30;2.90;;;19.20;92.80;;;;;;10409001;28;20079;-67
2023/05/12 19:16:34;;;;;;;4.40;2.90;;;19.30;93.00;;;;;;10416009;28;20040;-67
2023/05/12 19:21:35;;;;;;;4.22;2.75;;;19.20;93.20;;;;;;10411736;28;20017;-67
2023/05/12 19:26:36;;;;;;;4.30;2.80;;;19.20;93.30;;;;;;10417632;28;20029;-67
2023/05/12 19:31:36;;;;;;;3.40;2.67;;;19.10;93.50;;;;;;10416127;28;20033;-70
2023/05/12 19:36:37;;;;;;;3.45;2.47;;;19.10;93.60;;;;;;10420337;28;20415;-68
2023/05/12 19:41:39;;;;;;;3.63;3.03;;;19.00;93.70;;;;;;10411159;28;20512;-68
2023/05/12 19:46:40;;;;;;;4.13;2.72;;;19.00;93.90;;;;;;10413289;28;20132;-67
2023/05/12 19:51:40;;;;;;;3.60;2.60;;;19.00;94.00;;;;;;10414034;28;20078;-67
2023/05/12 19:56:41;;;;;;;3.97;2.80;;;19.00;94.10;;;;;;10416782;28;20056;-68
2023/05/12 20:01:42;;;;;;;4.75;3.13;;;19.00;94.20;;;;;;10417641;28;20075;-68
2023/05/12 20:06:43;;;;;;;4.10;3.35;;;18.90;94.30;;;;;;10410769;28;20056;-67
2023/05/12 20:11:43;;;;;;;3.08;2.75;;;18.90;94.40;;;;;;10409797;28;20502;-67
2023/05/12 20:16:44;;;;;;;4.25;3.00;;;18.90;94.50;;;;;;10412260;28;20026;-67
2023/05/12 20:21:45;;;;;;;5.13;3.05;;;18.80;94.60;;;;;;10410015;28;20021;-67
2023/05/12 20:26:46;;;;;;;2.97;2.70;;;18.80;94.70;;;;;;10412971;28;20520;-67
2023/05/12 20:31:51;;;;;;;4.03;3.20;;;18.70;94.70;;;;;;10412246;28;20030;-68
2023/05/12 20:36:52;;;;;;;3.35;2.90;;;18.60;94.80;;;;;;10416620;28;20097;-68
2023/05/12 20:41:53;;;;;;;4.05;2.90;;;18.70;94.90;;;;;;10414697;28;20708;-68
2023/05/12 20:46:54;;;;;;;4.13;2.92;;;18.70;95.00;;;;;;10415851;28;20537;-68
2023/05/12 20:51:55;;;;;;;4.43;3.10;;;18.70;95.00;;;;;;10418911;28;20052;-68
2023/05/12 20:56:56;;;;;;;3.97;2.95;;;18.60;95.10;;;;;;10410029;28;20431;-67
2023/05/12 21:01:56;;;;;;;6.60;3.05;;;18.60;95.10;;;;;;10422230;28;20025;-68
2023/05/12 21:06:57;;;;;;;3.72;2.70;;;18.60;95.20;;;;;;10414841;28;20030;-68
2023/05/12 21:11:57;;;;;;;3.15;2.85;;;18.50;95.30;;;;;;10412987;28;20025;-68
2023/05/12 21:16:58;;;;;;;3.25;2.85;;;18.50;95.40;;;;;;10414849;28;20108;-67
2023/05/12 21:21:59;;;;;;;3.78;2.92;;;18.50;95.50;;;;;;10420256;28;20037;-68
2023/05/12 21:27:04;;;;;;;3.42;3.10;;;18.40;95.50;;;;;;10408371;28;20108;-67
2023/05/12 21:32:04;;;;;;;5.15;3.63;;;18.40;95.60;;;;;;10408054;28;20033;-67
2023/05/12 21:37:05;;;;;;;5.07;3.28;;;18.40;95.70;;;;;;10412567;28;20385;-67
2023/05/12 21:42:06;;;;;;;6.10;3.30;;;18.40;95.80;;;;;;10415074;28;20030;-67
2023/05/12 21:47:07;;;;;;;4.75;3.10;;;18.30;95.80;;;;;;10405423;28;20041;-67
2023/05/12 21:52:08;;;;;;;6.10;3.10;;;18.30;96.10;;;;;;10416245;28;20029;-67
2023/05/12 21:57:08;;;;;;;5.68;3.25;;;18.30;95.90;;;;;;10414666;28;20030;-67
2023/05/12 22:02:09;;;;;;;6.18;3.35;;;18.20;96.00;;;;;;10412140;28;20029;-67
2023/05/12 22:07:10;;;;;;;7.72;3.65;;;18.20;96.00;;;;;;10405911;28;20171;-68
2023/05/12 22:12:17;;;;;;;4.32;3.40;;;18.20;96.10;;;;;;10416852;28;20033;-67
2023/05/12 22:17:17;;;;;;;4.93;3.13;;;18.10;96.10;;;;;;10417353;28;20029;-67
2023/05/12 22:22:18;;;;;;;5.85;3.20;;;18.10;96.10;;;;;;10418063;28;20443;-67
2023/05/12 22:27:21;;;;;;;5.35;3.25;;;18.10;96.10;;;;;;10416322;28;20048;-67
2023/05/12 22:32:22;;;;;;;5.85;3.40;;;18.00;96.10;;;;;;10420754;28;20049;-67
2023/05/12 22:37:23;;;;;;;5.05;3.45;;;18.00;96.40;;;;;;10420749;28;20546;-68
2023/05/12 22:42:24;;;;;;;5.57;3.70;;;18.00;96.10;;;;;;10413639;28;20492;-67
2023/05/12 22:47:25;;;;;;;5.93;4.20;;;18.00;96.20;;;;;;10410970;28;20424;-68
2023/05/12 22:52:26;;;;;;;6.32;3.90;;;17.90;96.10;;;;;;10429665;28;20399;-68
2023/05/12 22:57:28;;;;;;;6.05;3.60;;;17.90;96.20;;;;;;10422467;28;20021;-67
2023/05/12 23:02:29;;;;;;;6.22;3.13;;;17.80;96.10;;;;;;10424163;28;20028;-68
2023/05/12 23:07:30;;;;;;;5.90;3.90;;;17.80;96.10;;;;;;10430319;28;20018;-68
2023/05/12 23:12:31;;;;;;;4.88;3.75;;;17.80;96.10;;;;;;10423337;28;20021;-68
2023/05/12 23:17:31;;;;;;;7.68;3.92;;;17.70;96.10;;;;;;10422255;28;20021;-68
2023/05/12 23:22:32;;;;;;;4.93;3.40;;;17.70;96.10;;;;;;10424835;28;20025;-67
2023/05/12 23:27:32;;;;;;;5.60;3.97;;;17.70;96.10;;;;;;10419762;28;20033;-67
2023/05/12 23:32:33;;;;;;;4.40;3.50;;;17.60;96.10;;;;;;10427024;28;20029;-67
2023/05/12 23:37:33;;;;;;;6.10;3.97;;;17.60;96.10;;;;;;10417140;28;20515;-67
2023/05/12 23:42:34;;;;;;;7.72;4.18;;;17.50;96.10;;;;;;10424388;28;20492;-67
2023/05/12 23:47:35;;;;;;;7.57;3.92;;;17.50;96.10;;;;;;10422105;28;20036;-67
2023/05/12 23:52:35;;;;;;;7.43;3.80;;;17.50;96.10;;;;;;10423248;28;20491;-67
2023/05/12 23:57:36;;;;;;;5.50;3.97;;;17.50;96.10;;;;;;10424333;28;20400;-67
